Time;durP1;ratioP1;P1;durP2;ratioP2;P2;SDS_P1;SDS_P2;PMS_P1;PMS_P2;Temp;Humidity;BMP_temperature;BMP_pressure;BME280_temperature;BME280_humidity;BME280_pressure;Samples;Min_cycle;Max_cycle;Signal;HPM_P1;HPM_P2
2022/07/23 00:00:59;;;;;;;3.67;2.13;;;21.10;95.70;;;;;;5139480;28;20184;-74
2022/07/23 00:03:24;;;;;;;4.00;2.37;;;21.20;95.20;;;;;;5122104;28;20183;-75
2022/07/23 00:05:51;;;;;;;6.50;2.40;;;21.30;95.00;;;;;;5120549;28;20176;-75
2022/07/23 00:08:17;;;;;;;5.37;2.83;;;21.30;94.70;;;;;;5128881;28;20463;-74
2022/07/23 00:10:42;;;;;;;10.73;2.83;;;21.40;94.20;;;;;;5096827;28;20211;-74
2022/07/23 00:13:08;;;;;;;4.63;2.50;;;21.40;94.20;;;;;;5113908;28;20241;-74
2022/07/23 00:15:34;;;;;;;10.40;2.23;;;21.40;94.20;;;;;;5114478;28;20648;-75
2022/07/23 00:17:59;;;;;;;4.33;2.33;;;21.40;94.10;;;;;;5114091;28;20202;-74
2022/07/23 00:20:25;;;;;;;3.77;2.33;;;21.40;94.70;;;;;;5114533;28;20207;-75
2022/07/23 00:22:53;;;;;;;4.70;2.03;;;21.30;95.00;;;;;;5114008;28;20211;-75
2022/07/23 00:25:20;;;;;;;5.27;2.50;;;21.20;95.30;;;;;;5114486;28;20249;-74
2022/07/23 00:27:45;;;;;;;6.17;3.03;;;21.10;95.60;;;;;;5114102;28;20417;-74
2022/07/23 00:30:12;;;;;;;4.90;2.30;;;21.00;95.50;;;;;;5114113;28;20753;-74
2022/07/23 00:32:54;;;;;;;4.37;2.30;;;21.00;95.40;;;;;;5113682;28;20179;-74
2022/07/23 00:35:21;;;;;;;5.70;2.37;;;21.00;94.90;;;;;;5114233;28;20422;-74
2022/07/23 00:37:47;;;;;;;3.33;2.40;;;21.10;95.00;;;;;;5114291;28;20799;-74
2022/07/23 00:40:13;;;;;;;4.53;2.27;;;21.10;95.10;;;;;;5114073;28;20421;-74
2022/07/23 00:42:39;;;;;;;3.30;2.17;;;21.10;94.70;;;;;;5113697;27;20628;-74
2022/07/23 00:45:06;;;;;;;3.90;2.60;;;21.00;94.40;;;;;;5113679;27;20200;-74
2022/07/23 00:47:32;;;;;;;4.00;2.20;;;21.10;94.30;;;;;;5113857;28;20947;-74
2022/07/23 00:49:57;;;;;;;4.67;2.30;;;21.10;94.40;;;;;;5113352;28;20422;-75
2022/07/23 00:52:23;;;;;;;5.97;2.30;;;21.10;94.50;;;;;;5113642;28;20191;-74
2022/07/23 00:54:49;;;;;;;4.40;1.90;;;21.10;94.60;;;;;;5111403;28;20184;-74
2022/07/23 00:57:15;;;;;;;3.57;2.27;;;21.10;94.10;;;;;;5113436;28;20274;-74
2022/07/23 00:59:41;;;;;;;8.37;3.23;;;21.10;94.10;;;;;;5113422;28;20520;-74
2022/07/23 01:02:07;;;;;;;5.40;2.17;;;21.10;94.20;;;;;;5112813;28;20229;-74
2022/07/23 01:04:33;;;;;;;4.17;2.50;;;21.10;94.10;;;;;;5113404;28;20211;-74
2022/07/23 01:07:00;;;;;;;3.80;2.10;;;21.20;94.40;;;;;;5113740;28;20199;-74
2022/07/23 01:09:26;;;;;;;6.03;2.20;;;21.10;94.70;;;;;;5113175;28;20557;-74
2022/07/23 01:11:54;;;;;;;5.10;2.57;;;20.90;95.40;;;;;;5113265;28;20421;-74
2022/07/23 01:14:19;;;;;;;4.43;2.30;;;20.80;95.70;;;;;;5113299;28;20906;-74
2022/07/23 01:16:47;;;;;;;5.73;2.00;;;20.70;96.80;;;;;;5112983;28;20421;-74
2022/07/23 01:19:13;;;;;;;5.97;3.03;;;20.60;96.60;;;;;;5099520;28;20184;-74
2022/07/23 01:21:50;;;;;;;3.77;1.90;;;20.60;97.10;;;;;;5113029;28;20915;-75
2022/07/23 01:24:19;;;;;;;4.97;2.27;;;20.50;97.20;;;;;;5112871;28;20548;-74
2022/07/23 01:26:47;;;;;;;3.93;2.13;;;20.40;97.90;;;;;;5113646;28;20759;-74
2022/07/23 01:29:13;;;;;;;5.33;2.57;;;20.40;97.70;;;;;;5109177;28;20422;-74
2022/07/23 01:31:38;;;;;;;5.70;3.20;;;20.40;98.10;;;;;;5102559;28;20425;-74
2022/07/23 01:34:06;;;;;;;7.13;2.83;;;20.30;98.60;;;;;;5112898;28;20215;-74
2022/07/23 01:36:33;;;;;;;4.30;3.00;;;20.30;99.40;;;;;;5113151;28;20187;-74
2022/07/23 01:38:58;;;;;;;4.80;2.67;;;20.20;99.90;;;;;;5112834;28;20429;-74
2022/07/23 01:41:24;;;;;;;5.00;2.40;;;20.10;99.90;;;;;;5112814;28;20551;-74
2022/07/23 01:43:50;;;;;;;4.23;2.40;;;20.00;99.90;;;;;;5112374;28;20294;-74
2022/07/23 01:46:16;;;;;;;6.63;2.50;;;20.00;99.90;;;;;;5112827;28;20176;-74
2022/07/23 01:48:42;;;;;;;6.87;3.17;;;19.90;99.90;;;;;;5112975;28;20180;-74
2022/07/23 01:51:07;;;;;;;9.40;3.03;;;19.80;99.90;;;;;;5112311;28;20722;-74
2022/07/23 01:53:33;;;;;;;5.70;3.60;;;19.80;99.90;;;;;;5112975;28;20192;-74
2022/07/23 01:55:59;;;;;;;5.13;2.30;;;19.70;99.90;;;;;;5109473;28;20633;-74
2022/07/23 01:58:26;;;;;;;6.97;2.60;;;19.70;99.90;;;;;;5112627;28;20211;-74
2022/07/23 02:00:53;;;;;;;5.17;2.50;;;19.70;99.90;;;;;;5112262;28;20504;-75
2022/07/23 02:03:19;;;;;;;4.37;2.77;;;19.70;99.90;;;;;;5112285;28;20441;-75
2022/07/23 02:05:45;;;;;;;5.80;2.20;;;19.70;99.90;;;;;;5112475;28;20833;-75
2022/07/23 02:08:11;;;;;;;4.13;2.57;;;19.70;99.90;;;;;;5106406;28;20425;-75
2022/07/23 02:10:36;;;;;;;4.80;2.37;;;19.80;99.90;;;;;;5112365;28;20211;-74
2022/07/23 02:13:02;;;;;;;5.83;2.57;;;19.80;99.90;;;;;;5112455;28;20775;-74
2022/07/23 02:15:28;;;;;;;5.13;2.90;;;19.80;99.90;;;;;;5112437;28;20183;-74
2022/07/23 02:17:55;;;;;;;6.30;2.87;;;19.90;99.90;;;;;;5112444;28;20167;-75
2022/07/23 02:20:21;;;;;;;4.03;2.20;;;19.90;99.90;;;;;;5112185;28;20186;-74
2022/07/23 02:22:47;;;;;;;5.17;2.87;;;19.90;99.90;;;;;;5111393;28;20437;-74
2022/07/23 02:25:13;;;;;;;5.50;2.90;;;19.90;99.90;;;;;;5112109;28;20476;-75
2022/07/23 02:27:38;;;;;;;4.97;2.57;;;20.00;99.90;;;;;;5111347;28;20258;-75
2022/07/23 02:30:05;;;;;;;6.30;2.50;;;20.00;99.90;;;;;;5112497;28;20224;-74
2022/07/23 02:32:31;;;;;;;6.67;2.90;;;20.00;99.90;;;;;;5111401;28;20207;-74
2022/07/23 02:34:56;;;;;;;4.33;2.63;;;20.00;99.50;;;;;;5112374;28;20445;-74
2022/07/23 02:37:22;;;;;;;4.73;2.20;;;20.10;99.60;;;;;;5111696;28;20191;-75
2022/07/23 02:39:50;;;;;;;5.70;2.70;;;20.10;99.90;;;;;;5111999;28;20184;-75
2022/07/23 02:42:17;;;;;;;8.50;3.37;;;20.00;99.90;;;;;;5111708;28;20198;-74
2022/07/23 02:44:43;;;;;;;8.23;2.60;;;20.00;99.90;;;;;;5112125;28;20493;-74
2022/07/23 02:47:08;;;;;;;6.00;2.90;;;20.00;99.90;;;;;;5111624;28;20684;-74
2022/07/23 02:49:34;;;;;;;10.40;2.80;;;19.90;99.90;;;;;;5111466;28;20252;-75
2022/07/23 02:52:00;;;;;;;3.70;2.37;;;19.90;99.90;;;;;;5111601;28;20190;-74
2022/07/23 02:54:25;;;;;;;10.73;3.10;;;19.90;99.90;;;;;;5111447;28;20661;-75
2022/07/23 02:56:51;;;;;;;4.60;2.47;;;19.90;99.90;;;;;;5109669;28;20281;-74
2022/07/23 02:59:17;;;;;;;3.33;2.23;;;19.90;99.90;;;;;;5111788;28;20226;-74
2022/07/23 03:01:43;;;;;;;6.10;2.97;;;19.90;99.90;;;;;;5111233;28;20663;-75
2022/07/23 03:04:09;;;;;;;4.70;2.40;;;19.90;99.90;;;;;;5111766;28;20281;-75
2022/07/23 03:06:35;;;;;;;6.80;2.60;;;19.80;99.90;;;;;;5107057;28;20469;-74
2022/07/23 03:09:02;;;;;;;5.53;2.60;;;19.80;99.90;;;;;;5091184;28;20192;-75
2022/07/23 03:11:27;;;;;;;4.00;2.37;;;19.70;99.90;;;;;;5109431;28;20457;-74
2022/07/23 03:13:53;;;;;;;6.10;3.00;;;19.80;99.90;;;;;;5111359;28;20934;-74
2022/07/23 03:16:19;;;;;;;4.40;2.80;;;19.80;99.90;;;;;;5111098;28;20188;-74
2022/07/23 03:18:44;;;;;;;5.20;3.03;;;19.90;99.90;;;;;;5111609;28;20180;-75
2022/07/23 03:21:10;;;;;;;6.13;2.97;;;19.90;99.90;;;;;;5111094;28;20203;-75
2022/07/23 03:23:36;;;;;;;6.70;3.00;;;20.00;99.90;;;;;;5111335;28;20630;-74
2022/07/23 03:26:01;;;;;;;6.40;2.80;;;20.00;99.90;;;;;;5111792;28;20205;-74
2022/07/23 03:28:27;;;;;;;3.87;2.70;;;20.00;99.90;;;;;;5111474;28;20192;-74
2022/07/23 03:30:53;;;;;;;5.27;2.43;;;19.90;99.90;;;;;;5098009;28;20195;-74
2022/07/23 03:33:20;;;;;;;5.43;2.87;;;19.90;99.90;;;;;;5111541;28;20176;-74
2022/07/23 03:35:47;;;;;;;5.97;3.40;;;19.90;99.90;;;;;;5111290;28;20195;-74
2022/07/23 03:38:13;;;;;;;4.97;2.70;;;19.80;99.90;;;;;;5112143;28;20425;-74
2022/07/23 03:40:39;;;;;;;5.57;3.37;;;19.80;99.90;;;;;;5113403;28;20453;-74
2022/07/23 03:43:05;;;;;;;5.23;2.67;;;19.80;99.90;;;;;;5114944;28;20453;-74
2022/07/23 03:45:31;;;;;;;9.43;2.90;;;19.80;99.90;;;;;;5114619;28;20214;-75
2022/07/23 03:47:57;;;;;;;5.87;2.93;;;19.80;99.90;;;;;;5115460;28;20184;-75
2022/07/23 03:50:23;;;;;;;7.43;3.17;;;19.80;99.90;;;;;;5114392;28;20425;-74
2022/07/23 03:52:49;;;;;;;5.83;3.07;;;19.70;99.90;;;;;;5115432;28;20417;-74
2022/07/23 03:55:14;;;;;;;6.07;2.90;;;19.60;99.90;;;;;;5112075;28;20250;-74
2022/07/23 03:57:41;;;;;;;6.23;3.23;;;19.50;99.90;;;;;;5115109;28;20920;-74
2022/07/23 04:00:12;;;;;;;6.97;3.60;;;19.50;99.90;;;;;;5108375;28;20601;-74
2022/07/23 04:02:38;;;;;;;6.83;3.20;;;19.50;99.90;;;;;;5114215;28;20508;-74
2022/07/23 04:05:05;;;;;;;5.30;3.20;;;19.40;99.90;;;;;;5114362;28;20465;-74
2022/07/23 04:07:31;;;;;;;4.53;1.80;;;19.40;99.90;;;;;;5108586;28;20455;-74
2022/07/23 04:09:56;;;;;;;6.53;3.07;;;19.40;99.90;;;;;;5114265;28;20438;-74
2022/07/23 04:12:25;;;;;;;4.53;2.80;;;19.30;99.90;;;;;;5114407;28;20216;-74
2022/07/23 04:14:52;;;;;;;5.07;3.17;;;19.30;99.90;;;;;;5114752;28;20270;-74
2022/07/23 04:17:17;;;;;;;6.00;2.90;;;19.30;99.90;;;;;;5114503;28;20514;-74
2022/07/23 04:19:43;;;;;;;7.93;2.43;;;19.30;99.90;;;;;;5114635;28;20915;-75
2022/07/23 04:22:12;;;;;;;5.23;3.20;;;19.30;99.90;;;;;;5114157;28;20180;-75
2022/07/23 04:24:38;;;;;;;6.50;3.10;;;19.20;99.90;;;;;;5114370;28;20471;-74
2022/07/23 04:27:05;;;;;;;8.13;3.87;;;19.20;99.90;;;;;;5114484;28;20421;-74
2022/07/23 04:29:30;;;;;;;5.70;3.03;;;19.30;99.90;;;;;;5114307;28;20180;-74
2022/07/23 04:31:56;;;;;;;8.17;3.37;;;19.30;99.90;;;;;;5114010;28;20479;-74
2022/07/23 04:34:22;;;;;;;6.97;2.57;;;19.30;99.90;;;;;;5114456;28;20208;-74
2022/07/23 04:36:48;;;;;;;8.47;4.00;;;19.40;99.90;;;;;;5114075;28;20187;-74
2022/07/23 04:39:14;;;;;;;5.73;2.93;;;19.40;99.90;;;;;;5114074;28;20209;-74
2022/07/23 04:41:39;;;;;;;16.73;3.63;;;19.50;99.90;;;;;;5113720;27;20418;-74
2022/07/23 04:44:05;;;;;;;5.90;3.10;;;19.60;99.90;;;;;;5114234;28;20211;-74
2022/07/23 04:46:31;;;;;;;5.63;2.50;;;19.60;99.90;;;;;;5114014;27;20545;-74
2022/07/23 04:48:57;;;;;;;5.93;3.60;;;19.70;99.90;;;;;;5113457;28;20198;-74
2022/07/23 04:51:22;;;;;;;9.40;3.67;;;19.80;99.90;;;;;;5112967;28;20678;-74
2022/07/23 04:53:48;;;;;;;5.23;2.90;;;19.90;99.90;;;;;;5113895;28;20681;-74
2022/07/23 04:56:14;;;;;;;4.80;3.10;;;19.90;99.90;;;;;;5110455;28;20595;-75
2022/07/23 04:58:39;;;;;;;8.67;3.10;;;20.00;99.90;;;;;;5114956;28;20240;-75
2022/07/23 05:01:08;;;;;;;5.77;3.50;;;20.00;99.90;;;;;;5105622;28;20183;-75
2022/07/23 05:03:34;;;;;;;7.83;2.90;;;20.10;99.90;;;;;;5114237;28;20200;-75
2022/07/23 05:05:59;;;;;;;4.47;2.77;;;20.10;99.90;;;;;;5116525;28;20775;-75
2022/07/23 05:08:25;;;;;;;9.30;3.07;;;20.20;99.90;;;;;;5103629;28;20302;-75
2022/07/23 05:10:51;;;;;;;4.53;2.80;;;20.20;99.90;;;;;;5138453;28;20211;-75
2022/07/23 05:13:17;;;;;;;5.90;3.20;;;20.20;99.90;;;;;;5139523;27;20199;-75
2022/07/23 05:15:43;;;;;;;5.60;3.13;;;20.30;99.90;;;;;;5140831;28;20200;-75
2022/07/23 05:18:09;;;;;;;7.80;3.23;;;20.30;99.90;;;;;;5135224;28;20428;-75
2022/07/23 05:20:35;;;;;;;10.77;3.60;;;20.40;99.90;;;;;;5116017;28;20501;-75
2022/07/23 05:23:00;;;;;;;5.77;2.80;;;20.50;99.90;;;;;;5114180;28;20187;-75
2022/07/23 05:25:26;;;;;;;6.03;3.67;;;20.50;99.90;;;;;;5113652;28;20294;-75
2022/07/23 05:27:52;;;;;;;6.40;3.27;;;20.60;99.90;;;;;;5113817;28;20187;-75
2022/07/23 05:30:18;;;;;;;5.27;2.40;;;20.60;99.90;;;;;;5112932;28;20187;-75
2022/07/23 05:32:43;;;;;;;6.83;3.30;;;20.70;99.90;;;;;;5111427;28;20188;-75
2022/07/23 05:35:09;;;;;;;5.23;3.40;;;20.70;99.60;;;;;;5113184;28;20682;-75
2022/07/23 05:37:35;;;;;;;4.97;2.80;;;20.80;99.60;;;;;;5112893;28;20592;-75
2022/07/23 05:40:09;;;;;;;6.20;3.30;;;20.80;99.60;;;;;;5112799;28;20191;-75
2022/07/23 05:42:37;;;;;;;7.67;3.83;;;20.80;99.70;;;;;;5113017;28;20580;-75
2022/07/23 05:45:03;;;;;;;9.43;4.03;;;20.70;99.90;;;;;;5112601;28;20457;-75
2022/07/23 05:47:43;;;;;;;4.97;2.70;;;20.60;99.90;;;;;;5112666;28;20422;-75
2022/07/23 05:50:09;;;;;;;4.27;2.50;;;20.50;99.90;;;;;;5099047;28;20520;-75
2022/07/23 05:52:35;;;;;;;7.67;3.87;;;20.50;99.90;;;;;;5112909;28;20430;-74
2022/07/23 05:55:01;;;;;;;5.07;3.20;;;20.60;99.90;;;;;;5110042;28;20431;-75
2022/07/23 05:57:26;;;;;;;7.57;4.27;;;20.60;99.90;;;;;;5112536;28;20746;-74
2022/07/23 05:59:52;;;;;;;9.00;4.40;;;20.60;99.90;;;;;;5106382;28;20270;-74
2022/07/23 06:02:18;;;;;;;6.13;3.53;;;20.70;99.90;;;;;;5102130;28;20680;-74
2022/07/23 06:04:43;;;;;;;7.07;4.23;;;20.80;99.90;;;;;;5109368;28;20219;-75
2022/07/23 06:07:12;;;;;;;6.27;3.80;;;20.90;99.90;;;;;;5113374;28;20172;-75
2022/07/23 06:09:37;;;;;;;6.80;4.50;;;21.00;99.90;;;;;;5112466;28;20549;-74
2022/07/23 06:12:03;;;;;;;7.90;4.37;;;21.10;99.90;;;;;;5113037;28;20496;-74
2022/07/23 06:14:32;;;;;;;7.60;4.10;;;21.20;99.90;;;;;;5114169;28;20219;-74
2022/07/23 06:16:59;;;;;;;8.40;3.97;;;21.30;99.90;;;;;;5113584;28;20198;-75
2022/07/23 06:19:25;;;;;;;6.77;4.33;;;21.40;99.90;;;;;;5114015;28;20478;-75
2022/07/23 06:21:51;;;;;;;9.40;5.43;;;21.50;99.90;;;;;;5110646;28;20433;-75
2022/07/23 06:24:16;;;;;;;9.53;4.47;;;21.60;99.90;;;;;;5109485;28;20211;-76
2022/07/23 06:26:42;;;;;;;6.90;3.93;;;21.70;99.90;;;;;;5102691;28;20188;-75
2022/07/23 06:29:07;;;;;;;6.97;4.20;;;21.90;99.90;;;;;;5112304;28;20539;-75
2022/07/23 06:31:34;;;;;;;10.90;4.00;;;22.00;99.80;;;;;;5111508;28;20180;-75
2022/07/23 06:33:59;;;;;;;6.67;3.93;;;22.10;99.80;;;;;;5112329;28;20270;-75
2022/07/23 06:36:25;;;;;;;12.33;5.17;;;22.30;99.90;;;;;;5112128;28;20975;-75
2022/07/23 06:38:51;;;;;;;6.67;3.40;;;22.50;99.90;;;;;;5111794;28;20196;-76
2022/07/23 06:41:16;;;;;;;10.70;4.33;;;22.70;99.90;;;;;;5111337;28;20195;-75
2022/07/23 06:43:42;;;;;;;7.87;3.53;;;22.90;99.00;;;;;;5111639;28;20244;-76
2022/07/23 06:46:07;;;;;;;8.83;3.97;;;23.00;98.10;;;;;;5111557;28;20577;-75
2022/07/23 06:48:35;;;;;;;10.27;4.30;;;22.90;98.60;;;;;;5111971;28;20675;-73
2022/07/23 06:51:01;;;;;;;6.27;4.33;;;23.00;98.90;;;;;;5109151;28;20182;-74
2022/07/23 06:53:27;;;;;;;16.30;4.37;;;23.00;98.90;;;;;;5111492;28;20813;-74
2022/07/23 06:55:53;;;;;;;9.60;4.23;;;23.10;98.30;;;;;;5111438;28;20425;-74
2022/07/23 06:58:20;;;;;;;10.63;3.83;;;23.10;97.70;;;;;;5106341;28;20258;-74
2022/07/23 07:00:46;;;;;;;8.00;4.20;;;23.20;98.00;;;;;;5110236;28;20179;-74
2022/07/23 07:03:11;;;;;;;6.83;3.83;;;23.00;98.20;;;;;;5110909;28;20512;-74
2022/07/23 07:05:39;;;;;;;7.40;4.50;;;22.90;97.50;;;;;;5109430;28;20211;-75
2022/07/23 07:08:05;;;;;;;7.93;4.23;;;22.70;98.10;;;;;;5104359;28;20184;-74
2022/07/23 07:10:31;;;;;;;6.03;3.80;;;22.60;98.70;;;;;;5110195;28;20441;-75
2022/07/23 07:12:57;;;;;;;5.20;3.30;;;22.50;99.00;;;;;;5110304;28;20952;-75
2022/07/23 07:15:22;;;;;;;5.70;3.60;;;22.40;98.60;;;;;;5113903;28;20188;-75
2022/07/23 07:17:48;;;;;;;7.23;2.93;;;22.30;98.30;;;;;;5114350;28;20356;-75
2022/07/23 07:20:14;;;;;;;8.80;3.90;;;22.30;98.70;;;;;;5114582;28;20184;-75
2022/07/23 07:22:40;;;;;;;7.53;3.20;;;22.40;97.00;;;;;;5114371;28;20259;-75
2022/07/23 07:25:06;;;;;;;4.63;3.43;;;22.60;97.00;;;;;;5114500;28;20215;-75
2022/07/23 07:27:32;;;;;;;12.83;4.30;;;22.80;96.20;;;;;;5114140;28;20188;-75
2022/07/23 07:29:57;;;;;;;5.27;3.50;;;23.10;95.20;;;;;;5115293;28;20822;-76
2022/07/23 07:32:23;;;;;;;5.77;3.23;;;23.40;95.10;;;;;;5114491;28;20203;-76
2022/07/23 07:34:49;;;;;;;6.50;3.40;;;23.90;94.00;;;;;;5113634;28;20546;-76
2022/07/23 07:37:15;;;;;;;7.03;3.60;;;24.10;94.50;;;;;;5114750;28;20205;-76
2022/07/23 07:39:41;;;;;;;17.63;4.73;;;24.30;93.50;;;;;;5114663;28;20985;-76
2022/07/23 07:42:06;;;;;;;6.00;3.70;;;24.60;92.90;;;;;;5114759;28;20189;-76
2022/07/23 07:44:32;;;;;;;6.10;3.23;;;24.80;93.00;;;;;;5114694;28;20194;-76
2022/07/23 07:46:58;;;;;;;8.87;3.30;;;25.40;91.80;;;;;;5114154;28;20170;-76
2022/07/23 07:49:24;;;;;;;5.80;3.27;;;26.00;90.10;;;;;;5114616;28;20179;-77
2022/07/23 07:51:49;;;;;;;6.73;3.40;;;26.40;88.40;;;;;;5114954;28;20427;-77
2022/07/23 07:54:15;;;;;;;5.90;3.43;;;27.00;88.00;;;;;;5115240;28;20175;-77
2022/07/23 07:56:41;;;;;;;10.82;3.45;;;27.10;88.50;;;;;;5112691;28;20824;-77
2022/07/23 07:59:06;;;;;;;6.93;3.15;;;27.20;86.10;;;;;;5113723;28;20747;-76
2022/07/23 08:01:32;;;;;;;4.55;3.00;;;27.80;81.70;;;;;;5113980;27;20171;-76
2022/07/23 08:03:58;;;;;;;16.88;3.67;;;28.10;80.60;;;;;;5114167;28;20199;-76
2022/07/23 08:06:24;;;;;;;10.32;3.75;;;27.40;84.00;;;;;;5114865;28;20712;-76
2022/07/23 08:08:49;;;;;;;6.60;3.67;;;26.60;84.40;;;;;;5113701;28;20179;-76
2022/07/23 08:11:15;;;;;;;7.80;3.87;;;25.70;90.10;;;;;;5114855;28;20225;-76
2022/07/23 08:13:44;;;;;;;10.83;3.70;;;25.00;91.40;;;;;;5115187;28;20621;-76
2022/07/23 08:16:10;;;;;;;9.47;4.50;;;24.80;91.50;;;;;;5114381;28;20512;-75
2022/07/23 08:18:36;;;;;;;4.90;3.13;;;24.80;91.90;;;;;;5114628;28;20421;-76
2022/07/23 08:21:02;;;;;;;5.40;2.70;;;25.10;91.90;;;;;;5114160;28;20429;-76
2022/07/23 08:23:27;;;;;;;8.63;3.60;;;25.60;90.50;;;;;;5114458;28;20206;-76
2022/07/23 08:25:53;;;;;;;9.23;3.60;;;25.80;90.30;;;;;;5113152;28;20594;-76
2022/07/23 08:28:19;;;;;;;5.47;3.43;;;25.80;90.00;;;;;;5114499;28;20179;-76
2022/07/23 08:30:45;;;;;;;7.53;3.33;;;25.50;89.30;;;;;;5113976;28;20179;-76
2022/07/23 08:33:13;;;;;;;5.63;3.43;;;25.20;90.50;;;;;;5113793;28;20568;-76
2022/07/23 08:35:47;;;;;;;7.13;3.63;;;25.30;90.20;;;;;;5114219;28;20259;-76
2022/07/23 08:38:15;;;;;;;6.73;3.30;;;25.10;90.30;;;;;;5114267;28;20412;-76
2022/07/23 08:40:46;;;;;;;5.30;3.17;;;25.10;90.60;;;;;;5114152;28;20496;-76
2022/07/23 08:43:17;;;;;;;6.63;3.37;;;25.30;90.10;;;;;;5113560;28;20432;-76
2022/07/23 08:45:45;;;;;;;5.30;3.70;;;25.80;87.10;;;;;;5113713;28;20547;-76
2022/07/23 08:48:18;;;;;;;7.70;2.93;;;26.30;87.20;;;;;;5113387;28;20424;-76
2022/07/23 08:50:49;;;;;;;6.37;3.70;;;26.80;87.60;;;;;;5114228;28;20266;-76
2022/07/23 08:53:17;;;;;;;4.53;3.27;;;26.80;84.50;;;;;;5114211;28;20180;-76
2022/07/23 08:55:47;;;;;;;8.30;4.47;;;26.70;85.70;;;;;;5110516;28;20258;-76
2022/07/23 08:58:13;;;;;;;6.83;4.07;;;26.70;85.80;;;;;;5114069;28;20187;-76
2022/07/23 09:00:40;;;;;;;8.93;4.18;;;26.70;86.30;;;;;;5114205;28;20298;-76
2022/07/23 09:03:05;;;;;;;7.47;3.40;;;26.60;86.30;;;;;;5112138;28;20183;-76
2022/07/23 09:05:31;;;;;;;5.60;3.53;;;26.40;85.40;;;;;;5113702;28;20258;-76
2022/07/23 09:08:13;;;;;;;8.07;3.90;;;26.20;85.40;;;;;;5113897;28;20200;-76
2022/07/23 09:10:55;;;;;;;6.57;4.10;;;26.00;86.90;;;;;;5113457;28;20195;-77
2022/07/23 09:13:29;;;;;;;10.33;4.13;;;25.80;90.00;;;;;;5111606;28;20205;-77
2022/07/23 09:16:04;;;;;;;7.20;3.80;;;26.00;89.20;;;;;;5112356;28;20628;-77
2022/07/23 09:18:57;;;;;;;9.63;3.43;;;26.10;87.50;;;;;;5109636;28;20247;-77
2022/07/23 09:21:24;;;;;;;5.60;3.43;;;26.00;86.50;;;;;;5112365;28;20728;-77
2022/07/23 09:24:20;;;;;;;5.70;2.77;;;26.00;88.50;;;;;;5113180;28;20421;-76
2022/07/23 09:26:47;;;;;;;9.33;3.57;;;26.20;86.40;;;;;;5104247;28;20208;-77
2022/07/23 09:29:17;;;;;;;6.07;3.47;;;26.50;85.50;;;;;;5112432;28;20667;-78
2022/07/23 09:31:49;;;;;;;6.87;4.40;;;26.90;84.80;;;;;;5111565;28;20183;-78
2022/07/23 09:34:40;;;;;;;7.70;3.88;;;27.20;86.80;;;;;;5112344;28;20183;-77
2022/07/23 09:37:14;;;;;;;8.18;4.28;;;27.50;83.70;;;;;;5129253;28;20179;-77
2022/07/23 09:39:41;;;;;;;7.28;3.78;;;27.80;85.00;;;;;;5137905;28;20186;-77
2022/07/23 09:42:17;;;;;;;5.90;3.80;;;28.20;84.30;;;;;;5137171;28;20324;-77
2022/07/23 09:44:45;;;;;;;7.95;4.72;;;28.20;83.20;;;;;;5135844;28;20202;-78
2022/07/23 09:47:10;;;;;;;11.43;4.03;;;28.30;83.30;;;;;;5114855;28;20592;-78
2022/07/23 09:49:36;;;;;;;7.25;4.30;;;28.10;83.70;;;;;;5113943;28;20195;-77
2022/07/23 09:52:02;;;;;;;10.40;4.20;;;27.80;82.70;;;;;;5113878;28;20183;-77
2022/07/23 09:54:37;;;;;;;8.50;4.35;;;27.70;84.40;;;;;;5111344;28;20712;-77
2022/07/23 09:57:15;;;;;;;5.57;3.70;;;28.20;81.80;;;;;;5111760;28;20181;-78
2022/07/23 09:59:41;;;;;;;8.02;4.13;;;28.50;81.60;;;;;;5112050;28;20655;-77
2022/07/23 10:02:09;;;;;;;10.60;5.22;;;28.40;82.90;;;;;;5111692;28;20198;-77
2022/07/23 10:04:35;;;;;;;7.80;4.50;;;28.60;81.00;;;;;;5112317;28;20417;-78
2022/07/23 10:07:03;;;;;;;6.85;3.97;;;28.60;81.40;;;;;;5106845;28;20266;-77
2022/07/23 10:09:34;;;;;;;6.20;4.07;;;28.50;81.50;;;;;;5112341;28;20518;-77
2022/07/23 10:14:35;;;;;;;10.82;5.88;;;28.40;83.40;;;;;;5112427;28;20186;-76
2022/07/23 10:17:03;;;;;;;8.18;5.07;;;28.30;83.80;;;;;;5111821;28;20526;-77
2022/07/23 10:19:30;;;;;;;6.68;3.67;;;28.30;84.20;;;;;;5111759;28;20187;-75
2022/07/23 10:22:01;;;;;;;7.18;3.80;;;28.20;84.20;;;;;;5111765;28;20175;-75
2022/07/23 10:25:04;;;;;;;8.10;4.18;;;28.10;84.50;;;;;;5111627;28;20280;-75
2022/07/23 10:27:58;;;;;;;7.13;4.57;;;28.30;81.20;;;;;;5111973;28;20528;-75
2022/07/23 10:30:44;;;;;;;8.93;4.25;;;28.00;83.70;;;;;;5098561;28;20380;-77
2022/07/23 10:33:16;;;;;;;7.15;3.90;;;28.10;82.40;;;;;;5111300;28;20171;-77
2022/07/23 10:36:15;;;;;;;5.93;3.92;;;28.10;82.90;;;;;;5111570;28;20183;-77
2022/07/23 10:39:06;;;;;;;10.63;4.43;;;28.20;79.50;;;;;;5111457;28;20188;-77
2022/07/23 10:41:36;;;;;;;6.97;4.37;;;27.90;80.20;;;;;;5112316;28;20179;-77
2022/07/23 10:44:09;;;;;;;6.17;4.17;;;27.60;84.30;;;;;;5112325;28;20747;-77
2022/07/23 10:46:51;;;;;;;8.93;4.33;;;27.50;84.90;;;;;;5112808;28;20186;-77
2022/07/23 10:49:25;;;;;;;6.43;4.10;;;27.60;85.10;;;;;;5101930;28;20718;-77
2022/07/23 10:52:22;;;;;;;8.00;3.70;;;28.00;84.60;;;;;;5116724;28;20183;-77
2022/07/23 10:54:53;;;;;;;8.50;4.20;;;28.20;81.30;;;;;;5116732;28;20206;-77
2022/07/23 10:57:24;;;;;;;5.83;3.67;;;28.20;82.30;;;;;;5103872;28;20544;-77
2022/07/23 11:00:19;;;;;;;10.10;3.97;;;28.10;81.30;;;;;;5116243;28;20198;-77
2022/07/23 11:02:46;;;;;;;5.50;2.80;;;28.20;78.30;;;;;;5114736;28;20191;-77
2022/07/23 11:05:21;;;;;;;5.00;3.70;;;28.50;75.20;;;;;;5116272;27;20198;-77
2022/07/23 11:08:10;;;;;;;6.35;3.80;;;28.40;75.40;;;;;;5114006;28;20233;-77
2022/07/23 11:10:46;;;;;;;5.30;3.40;;;28.20;75.60;;;;;;5106925;28;20187;-77
2022/07/23 11:13:24;;;;;;;7.43;2.70;;;28.50;74.40;;;;;;5114812;28;20175;-76
2022/07/23 11:16:04;;;;;;;7.20;3.60;;;28.60;76.70;;;;;;5114821;28;20187;-77
2022/07/23 11:18:42;;;;;;;5.10;3.10;;;28.60;73.50;;;;;;5114467;28;20220;-77
2022/07/23 11:21:29;;;;;;;5.93;3.70;;;28.40;75.90;;;;;;5111902;28;20231;-77
2022/07/23 11:23:58;;;;;;;7.53;4.60;;;28.50;73.20;;;;;;5115187;28;20167;-76
2022/07/23 11:26:47;;;;;;;6.13;3.80;;;28.40;74.40;;;;;;5113707;28;20187;-77
2022/07/23 11:29:28;;;;;;;6.10;3.70;;;28.70;72.60;;;;;;5112584;28;20217;-76
2022/07/23 11:31:56;;;;;;;3.63;2.50;;;28.50;73.40;;;;;;5112259;28;20254;-76
2022/07/23 11:34:49;;;;;;;4.93;3.30;;;28.40;72.90;;;;;;5114281;28;20179;-76
2022/07/23 11:37:39;;;;;;;6.30;3.60;;;28.50;73.70;;;;;;5073809;28;20216;-76
2022/07/23 11:40:08;;;;;;;7.60;3.60;;;28.70;72.70;;;;;;5114469;28;20179;-76
2022/07/23 11:42:35;;;;;;;6.40;3.60;;;28.50;73.80;;;;;;5114953;28;20179;-75
2022/07/23 11:45:01;;;;;;;5.43;3.23;;;28.60;75.80;;;;;;5115407;28;20211;-75
2022/07/23 11:47:27;;;;;;;5.97;2.67;;;28.90;72.70;;;;;;5115391;27;20197;-76
2022/07/23 11:49:58;;;;;;;5.70;3.30;;;28.90;70.70;;;;;;5114751;28;20266;-77
2022/07/23 11:52:25;;;;;;;6.50;3.57;;;28.60;76.50;;;;;;5100816;28;20199;-76
2022/07/23 11:54:58;;;;;;;4.88;3.38;;;28.80;72.10;;;;;;5117029;28;20191;-76
2022/07/23 11:57:28;;;;;;;10.70;4.28;;;29.00;71.00;;;;;;5113658;28;20183;-77
2022/07/23 11:59:57;;;;;;;4.55;2.60;;;28.90;75.20;;;;;;5112928;28;20186;-77
2022/07/23 12:02:23;;;;;;;6.13;3.55;;;29.00;72.70;;;;;;5112796;28;20175;-76
2022/07/23 12:04:51;;;;;;;6.35;3.33;;;29.10;74.20;;;;;;5113674;27;20664;-77
2022/07/23 12:07:33;;;;;;;7.85;3.50;;;29.50;72.60;;;;;;5113184;28;20174;-75
2022/07/23 12:10:02;;;;;;;5.53;3.40;;;29.70;71.20;;;;;;5113086;28;20653;-77
2022/07/23 12:12:36;;;;;;;5.25;3.38;;;29.40;73.40;;;;;;5114319;28;20615;-77
2022/07/23 12:15:03;;;;;;;7.00;2.92;;;29.60;73.50;;;;;;5114483;28;20171;-76
2022/07/23 12:17:31;;;;;;;8.73;3.95;;;29.60;71.00;;;;;;5113813;27;20178;-76
2022/07/23 12:20:04;;;;;;;9.45;3.90;;;29.90;69.90;;;;;;5114350;28;20545;-76
2022/07/23 12:22:42;;;;;;;5.60;3.38;;;29.90;67.80;;;;;;5110425;28;20228;-76
2022/07/23 12:25:18;;;;;;;8.55;3.70;;;29.60;70.30;;;;;;5112245;28;20781;-76
2022/07/23 12:27:44;;;;;;;6.38;4.47;;;29.30;72.40;;;;;;5111350;28;20265;-76
2022/07/23 12:30:28;;;;;;;5.40;3.23;;;28.90;72.40;;;;;;5113449;27;20259;-76
2022/07/23 12:32:57;;;;;;;7.20;3.60;;;28.60;73.70;;;;;;5100009;28;20218;-76
2022/07/23 12:35:29;;;;;;;7.00;3.53;;;28.70;71.90;;;;;;5114280;28;20183;-76
2022/07/23 12:38:03;;;;;;;6.22;3.22;;;28.70;71.50;;;;;;5114400;28;20577;-76
2022/07/23 12:40:32;;;;;;;5.90;3.43;;;28.30;73.30;;;;;;5114136;28;20570;-76
2022/07/23 12:43:03;;;;;;;7.13;3.83;;;28.10;74.40;;;;;;5113568;28;20190;-77
2022/07/23 12:45:45;;;;;;;13.60;4.20;;;27.80;75.60;;;;;;5113137;28;20215;-76
2022/07/23 12:48:20;;;;;;;7.27;3.33;;;27.60;75.40;;;;;;5114220;28;20171;-78
2022/07/23 12:50:55;;;;;;;6.30;3.20;;;27.60;74.30;;;;;;5114362;28;20171;-77
2022/07/23 12:53:25;;;;;;;7.47;3.33;;;27.80;75.20;;;;;;5111019;28;20240;-77
2022/07/23 12:55:59;;;;;;;9.37;3.90;;;27.90;74.20;;;;;;5113197;28;20179;-77